Aviation Digital Data Service (ADDS)

Output produced by METARs form (1307 UTC 30 July 2014)
found at http://www.aviationweather.gov/adds/metars/
 
KEWR 301130Z 3012/3118 33005KT P6SM SCT090 
     FM301700 22008KT P6SM SCT060 
     FM310100 24005KT P6SM SCT060 SCT120 
     FM311700 22012KT P6SM BKN050